Terminal Aerodrome Forecast
Issued by NWS Mt. Holly, NJ

Home | Current Version | Previous Version | Text Only | Print | Product List | Glossary On
Versions: 1 2 3 4 5 6 7 8 9 10 11 12 13 14 15
000
FTUS41 KPHI 221728
TAFRDG
TAF
KRDG 221728Z 2218/2318 29015G27KT P6SM BKN060
      TEMPO 2219/2221 30020G32KT -SHRA
     FM230000 30010G18KT P6SM SKC
     FM230300 34008KT P6SM SKC
     FM231600 27006KT P6SM SCT250=

USA.gov is the U.S. government's official web portal to all federal, state and local government web resources and services.